Time;durP1;ratioP1;P1;durP2;ratioP2;P2;SDS_P1;SDS_P2;PMS_P1;PMS_P2;Temp;Humidity;BMP_temperature;BMP_pressure;BME280_temperature;BME280_humidity;BME280_pressure;Samples;Min_cycle;Max_cycle;Signal;HPM_P1;HPM_P2
2021/01/01 08:59:07;;;;;;;19.67;13.97;;;;;;;2.64;100.00;98046.47;5170164;27;20527;-86
2021/01/01 09:01:35;;;;;;;19.23;13.73;;;;;;;3.19;100.00;98063.19;5191497;22;38983;-87
2021/01/01 09:04:02;;;;;;;17.83;13.30;;;;;;;3.47;100.00;98040.94;5112582;27;40566;-89
2021/01/01 09:06:30;;;;;;;16.87;12.43;;;;;;;4.01;100.00;98074.13;5096585;27;42493;-90
2021/01/01 09:09:06;;;;;;;20.17;14.87;;;;;;;4.29;97.35;98063.13;5095928;28;41167;-86
2021/01/01 09:11:33;;;;;;;19.07;14.17;;;;;;;4.72;94.57;98067.03;5096155;28;39188;-84
2021/01/01 09:14:03;;;;;;;16.33;12.43;;;;;;;5.07;92.05;98070.44;5134513;22;41727;-87
2021/01/01 09:16:31;;;;;;;15.33;12.00;;;;;;;5.30;90.19;98075.34;5028914;28;41715;-86
2021/01/01 09:19:07;;;;;;;16.07;12.10;;;;;;;5.60;88.74;98071.97;5012999;28;41200;-85
2021/01/01 09:21:34;;;;;;;14.70;11.27;;;;;;;5.78;87.41;98061.31;5016872;28;39068;-83
2021/01/01 09:24:01;;;;;;;13.37;10.43;;;;;;;6.11;86.41;98079.59;5103038;22;40518;-87
2021/01/01 09:26:30;;;;;;;13.90;10.77;;;;;;;6.17;85.05;98082.81;5086203;28;42494;-84
2021/01/01 09:29:03;;;;;;;14.27;10.17;;;;;;;6.24;83.72;98084.16;5069142;28;42236;-85
2021/01/01 09:31:32;;;;;;;12.57;9.70;;;;;;;6.47;83.27;98088.94;5086253;28;38994;-84
2021/01/01 09:34:01;;;;;;;12.93;9.83;;;;;;;6.78;83.09;98093.25;5085633;28;42473;-86
2021/01/01 09:36:32;;;;;;;10.87;9.20;;;;;;;7.20;81.17;98098.53;5184549;22;43144;-85
2021/01/01 09:39:00;;;;;;;11.90;9.03;;;;;;;7.73;79.28;98101.44;5093560;27;42386;-88
2021/01/01 09:41:27;;;;;;;12.43;9.80;;;;;;;7.98;77.93;98096.31;5092040;27;41028;-85
2021/01/01 09:43:55;;;;;;;32.30;26.40;;;;;;;8.27;77.46;98092.63;5099873;27;42287;-86
2021/01/01 09:46:24;;;;;;;14.57;11.83;;;;;;;8.41;77.25;98086.47;5089582;28;41711;-87
2021/01/01 09:48:51;;;;;;;10.77;9.47;;;;;;;8.47;76.80;98093.13;5156742;22;41844;-88
2021/01/01 09:51:18;;;;;;;9.43;8.43;;;;;;;8.39;75.87;98092.81;5088383;28;38968;-87
2021/01/01 09:53:46;;;;;;;10.03;8.10;;;;;;;8.32;75.38;98078.31;5088048;28;40820;-85
2021/01/01 09:56:13;;;;;;;13.17;9.30;;;;;;;8.18;75.34;98082.66;5087552;28;43125;-88
2021/01/01 09:58:40;;;;;;;8.90;8.00;;;;;;;8.07;75.20;98111.53;5179192;22;41027;-88
2021/01/01 10:01:07;;;;;;;11.20;8.67;;;;;;;7.95;75.77;98101.75;5091656;27;37217;-87
2021/01/01 10:03:35;;;;;;;9.93;8.93;;;;;;;7.80;74.49;98102.72;5109387;27;41321;-89
2021/01/01 10:06:02;;;;;;;9.50;8.30;;;;;;;7.66;73.07;98108.06;5092101;27;41804;-89
2021/01/01 10:08:30;;;;;;;9.47;7.47;;;;;;;7.60;73.20;98116.31;5087237;28;41203;-86
2021/01/01 10:10:57;;;;;;;9.67;7.93;;;;;;;7.53;73.57;98122.00;5150185;22;38721;-89
2021/01/01 10:13:24;;;;;;;9.83;7.63;;;;;;;7.40;74.08;98104.41;5057803;28;40407;-89
2021/01/01 10:15:51;;;;;;;11.13;8.40;;;;;;;7.39;74.28;98113.25;5072610;28;42489;-86
2021/01/01 10:18:18;;;;;;;10.07;8.37;;;;;;;7.39;74.66;98116.72;5073556;28;41159;-87
2021/01/01 10:20:46;;;;;;;9.47;8.40;;;;;;;7.40;74.95;98125.47;5073030;28;40061;-85
2021/01/01 10:23:13;;;;;;;10.03;7.93;;;;;;;7.26;75.03;98115.78;5123317;22;41697;-85
2021/01/01 10:25:40;;;;;;;9.53;8.13;;;;;;;7.36;75.03;98113.41;4989948;28;41697;-89
2021/01/01 10:28:07;;;;;;;9.53;7.37;;;;;;;7.36;74.53;98116.91;5007708;28;42162;-86
2021/01/01 10:30:35;;;;;;;10.63;7.80;;;;;;;7.46;73.48;98131.19;4991518;28;38895;-87
2021/01/01 10:33:02;;;;;;;7.63;6.23;;;;;;;7.41;73.48;98114.00;5007834;28;42412;-88
2021/01/01 10:35:29;;;;;;;8.47;6.50;;;;;;;7.47;72.76;98132.88;5139319;22;42729;-85
2021/01/01 10:37:57;;;;;;;7.83;6.03;;;;;;;7.41;73.03;98135.06;5070918;28;41942;-87
2021/01/01 10:40:24;;;;;;;8.07;6.53;;;;;;;7.25;73.04;98116.72;5071443;28;39481;-83
2021/01/01 10:42:51;;;;;;;6.73;5.77;;;;;;;7.11;72.47;98100.91;5054182;28;43090;-88
2021/01/01 10:45:19;;;;;;;7.03;5.97;;;;;;;7.18;71.12;98133.81;5148603;22;41829;-85
2021/01/01 10:47:47;;;;;;;6.87;5.77;;;;;;;7.10;72.26;98136.91;5118894;27;41378;-86
2021/01/01 10:50:15;;;;;;;8.53;6.50;;;;;;;6.99;71.73;98122.69;5135757;27;39858;-87
2021/01/01 10:52:42;;;;;;;6.33;5.17;;;;;;;6.97;71.73;98128.06;5117760;27;41369;-85
2021/01/01 10:55:12;;;;;;;6.23;5.23;;;;;;;6.96;72.31;98102.66;5118169;27;42733;-85
2021/01/01 10:57:39;;;;;;;6.47;5.33;;;;;;;7.15;71.32;98115.59;5139118;23;43228;-87
2021/01/01 11:00:08;;;;;;;7.70;6.10;;;;;;;7.46;71.25;98114.53;4953064;28;38857;-89
2021/01/01 11:02:35;;;;;;;6.13;5.10;;;;;;;7.64;70.80;98117.84;4984173;28;40653;-86
2021/01/01 11:05:03;;;;;;;7.33;5.70;;;;;;;7.76;70.70;98117.06;5101850;23;41809;-83
2021/01/01 11:07:30;;;;;;;8.47;5.90;;;;;;;7.72;70.53;98105.88;5077124;28;42058;-85
2021/01/01 11:09:58;;;;;;;8.33;6.07;;;;;;;7.78;69.91;98110.75;5206311;22;40141;-82
2021/01/01 11:12:28;;;;;;;8.53;6.50;;;;;;;7.84;69.18;98122.69;5076996;28;40784;-80
2021/01/01 12:21:53;;;;;;;6.17;5.10;;;;;;;7.62;68.30;98114.44;5068273;28;20243;-85
2021/01/01 12:24:39;;;;;;;6.07;4.83;;;;;;;7.70;68.58;98113.00;5051829;28;42431;-86
2021/01/01 12:27:08;;;;;;;5.57;4.57;;;;;;;7.73;67.45;98111.97;5035385;28;39146;-84
2021/01/01 12:29:35;;;;;;;5.27;4.50;;;;;;;7.70;67.16;98114.81;5021174;28;41527;-86
2021/01/01 12:32:02;;;;;;;3.00;2.70;;;;;;;7.56;64.24;98124.41;5124271;23;41793;-86
2021/01/01 12:34:30;;;;;;;2.87;2.57;;;;;;;7.57;62.90;98147.19;5053854;28;41941;-86
2021/01/01 12:36:58;;;;;;;3.77;3.30;;;;;;;7.41;63.42;98132.44;5055328;28;38980;-82
2021/01/01 12:39:25;;;;;;;4.60;3.50;;;;;;;7.29;63.53;98126.13;5071154;28;41419;-83
2021/01/01 12:41:52;;;;;;;4.67;4.20;;;;;;;7.26;64.68;98117.56;5054509;28;43294;-84
2021/01/01 12:44:19;;;;;;;5.13;4.20;;;;;;;7.31;65.56;98132.13;5129347;22;45682;-83
2021/01/01 12:46:47;;;;;;;6.07;4.47;;;;;;;7.16;65.71;98112.84;5034305;28;39172;-84
2021/01/01 12:49:15;;;;;;;5.27;4.10;;;;;;;7.22;65.63;98132.69;5034648;28;40679;-86
2021/01/01 12:51:42;;;;;;;3.97;3.57;;;;;;;7.16;65.23;98135.72;5034007;28;42174;-83
2021/01/01 12:54:11;;;;;;;4.70;3.60;;;;;;;7.08;65.00;98130.88;5117428;22;41631;-87
2021/01/01 12:56:39;;;;;;;4.87;3.87;;;;;;;7.05;64.81;98135.47;5070709;28;40010;-83
2021/01/01 12:59:06;;;;;;;3.57;2.73;;;;;;;6.87;64.55;98126.06;5070670;28;41722;-83
2021/01/01 13:01:34;;;;;;;3.40;3.00;;;;;;;6.96;64.50;98150.03;5053737;28;42010;-82
2021/01/01 13:04:01;;;;;;;3.80;3.03;;;;;;;6.87;64.58;98142.69;5053793;28;41211;-84
2021/01/01 13:06:30;;;;;;;4.10;3.10;;;;;;;6.77;64.12;98126.59;5129781;22;38913;-82
2021/01/01 13:08:57;;;;;;;3.10;2.77;;;;;;;6.75;64.06;98144.25;5067014;28;41705;-81
2021/01/01 13:11:26;;;;;;;2.97;2.67;;;;;;;6.74;64.00;98150.47;5034751;28;42924;-83
2021/01/01 13:13:53;;;;;;;3.23;2.93;;;;;;;6.70;64.28;98151.56;5033986;28;41513;-85
2021/01/01 13:16:22;;;;;;;3.13;2.70;;;;;;;6.68;64.35;98153.44;5050262;28;40749;-83
2021/01/01 13:18:50;;;;;;;3.17;2.70;;;;;;;6.63;64.72;98144.97;5123716;22;41665;-85
2021/01/01 13:21:28;;;;;;;2.67;2.20;;;;;;;6.56;64.32;98145.41;5033486;28;42355;-85
2021/01/01 13:23:58;;;;;;;2.63;2.43;;;;;;;6.58;63.86;98154.06;5049169;28;42114;-83
2021/01/01 13:26:28;;;;;;;4.33;3.20;;;;;;;6.56;64.06;98163.81;5050136;28;38938;-84
2021/01/01 13:28:56;;;;;;;7.00;5.33;;;;;;;6.44;64.10;98144.31;5129796;22;40647;-83
2021/01/01 13:31:33;;;;;;;5.37;4.30;;;;;;;6.45;64.16;98148.66;5033926;28;41247;-83
2021/01/01 13:34:00;;;;;;;4.80;3.43;;;;;;;6.48;64.21;98169.53;5034318;28;40854;-82
2021/01/01 13:36:27;;;;;;;3.77;3.37;;;;;;;6.36;63.50;98162.34;5035062;28;40538;-85
2021/01/01 13:38:55;;;;;;;3.80;3.40;;;;;;;6.35;64.29;98158.00;5034476;28;40836;-85
2021/01/01 13:41:22;;;;;;;4.27;3.33;;;;;;;6.28;64.42;98154.88;5073054;22;41640;-83
2021/01/01 13:43:52;;;;;;;3.87;3.47;;;;;;;6.28;64.91;98156.66;4928696;28;42476;-85
2021/01/01 13:46:21;;;;;;;3.33;3.07;;;;;;;6.31;64.61;98175.72;4933541;28;38704;-83
2021/01/01 13:48:49;;;;;;;3.57;3.27;;;;;;;6.18;65.17;98160.75;4933500;28;42554;-86
2021/01/01 13:51:16;;;;;;;4.20;3.80;;;;;;;6.22;65.15;98171.00;4932490;28;41820;-84
2021/01/01 13:53:43;;;;;;;4.80;4.20;;;;;;;6.13;65.69;98161.00;5042150;22;42869;-86
2021/01/01 13:56:15;;;;;;;4.53;3.97;;;;;;;6.20;66.22;98177.25;4972247;28;39293;-84
2021/01/01 13:58:42;;;;;;;5.17;4.17;;;;;;;6.19;66.38;98180.81;4956671;28;41973;-83
2021/01/01 14:01:10;;;;;;;5.20;4.70;;;;;;;6.17;66.88;98180.09;4955741;28;42955;-85
2021/01/01 14:06:12;;;;;;;6.10;5.50;;;;;;;6.11;67.33;98182.09;4949126;28;39279;-84
2021/01/01 14:08:40;;;;;;;6.77;5.60;;;;;;;6.07;67.60;98177.94;4952595;28;41002;-86
2021/01/01 14:11:10;;;;;;;6.47;5.43;;;;;;;6.09;67.68;98181.34;5019228;28;41910;-83
2021/01/01 14:13:37;;;;;;;5.43;4.93;;;;;;;6.01;67.81;98167.78;4952073;28;42442;-82
2021/01/01 14:16:08;;;;;;;5.50;4.87;;;;;;;6.08;68.05;98182.28;5059580;22;39108;-82
2021/01/01 14:18:36;;;;;;;4.83;4.40;;;;;;;6.06;68.02;98181.50;5059472;28;41237;-83
2021/01/01 14:21:04;;;;;;;6.27;5.67;;;;;;;6.04;68.07;98178.13;5020276;28;42835;-85
2021/01/01 14:23:32;;;;;;;5.53;4.47;;;;;;;6.08;68.43;98179.63;5007647;28;41298;-84
2021/01/01 14:25:59;;;;;;;5.40;4.90;;;;;;;5.70;68.13;98128.31;4991194;28;38937;-82
2021/01/01 14:28:27;;;;;;;4.97;4.47;;;;;;;5.98;66.95;98202.09;5104431;22;40538;-82
2021/01/01 14:30:54;;;;;;;5.93;4.87;;;;;;;5.91;67.33;98202.53;5035472;28;44245;-84
2021/01/01 14:33:21;;;;;;;4.50;4.10;;;;;;;5.85;66.95;98193.16;5036810;28;41196;-83
2021/01/01 14:35:50;;;;;;;5.47;4.73;;;;;;;5.87;67.62;98201.81;5051307;28;39977;-83
2021/01/01 14:38:18;;;;;;;5.73;5.17;;;;;;;5.86;67.57;98207.16;5037095;28;41101;-84
2021/01/01 14:40:46;;;;;;;5.10;4.47;;;;;;;5.80;67.36;98203.09;5164791;22;42155;-83
2021/01/01 14:43:13;;;;;;;4.87;4.33;;;;;;;5.80;67.49;98204.88;5096648;27;41165;-86
2021/01/01 14:45:40;;;;;;;4.87;4.37;;;;;;;5.77;67.95;98203.25;5097076;27;40236;-82
2021/01/01 14:48:08;;;;;;;4.93;4.40;;;;;;;5.76;68.04;98204.16;5097247;27;42555;-84
2021/01/01 14:50:36;;;;;;;4.97;4.10;;;;;;;5.75;68.13;98208.56;5194539;22;42533;-87
2021/01/01 14:53:04;;;;;;;5.80;4.73;;;;;;;5.74;68.43;98206.03;5055654;28;41107;-86
2021/01/01 14:55:31;;;;;;;5.70;4.93;;;;;;;5.70;67.80;98215.00;5056274;28;38842;-84
2021/01/01 14:57:59;;;;;;;5.40;4.90;;;;;;;5.57;67.90;98203.44;5055699;28;42043;-85
2021/01/01 15:00:26;;;;;;;6.00;5.17;;;;;;;5.63;68.01;98214.47;5055584;28;41193;-85
2021/01/01 15:02:53;;;;;;;5.13;4.40;;;;;;;5.60;67.86;98219.03;5131108;22;41565;-85
2021/01/01 15:05:20;;;;;;;4.33;3.93;;;;;;;5.55;67.81;98216.66;5070853;28;39934;-84
2021/01/01 15:07:48;;;;;;;5.57;4.77;;;;;;;5.50;67.59;98209.94;5056120;28;41297;-85
2021/01/01 15:10:16;;;;;;;6.57;5.50;;;;;;;5.51;67.71;98214.28;5056049;28;41949;-82
2021/01/01 15:12:43;;;;;;;5.03;4.50;;;;;;;5.17;68.07;98168.78;5052245;28;42129;-82
2021/01/01 15:15:11;;;;;;;4.37;3.90;;;;;;;5.52;67.99;98222.06;5141211;22;41392;-83
2021/01/01 15:17:39;;;;;;;3.87;3.47;;;;;;;5.48;67.70;98217.91;5076017;28;41250;-82
2021/01/01 15:20:07;;;;;;;4.27;3.83;;;;;;;5.50;67.70;98230.97;5075912;28;42886;-81
2021/01/01 15:22:37;;;;;;;4.93;3.60;;;;;;;5.37;67.36;98213.22;5091781;28;42821;-81
2021/01/01 15:27:47;;;;;;;3.57;3.27;;;;;;;5.28;66.92;98218.94;5013505;28;40194;-83
2021/01/01 15:30:18;;;;;;;3.93;3.57;;;;;;;5.23;66.43;98220.09;4994972;28;43286;-85
2021/01/01 15:32:47;;;;;;;3.77;3.33;;;;;;;5.16;66.92;98202.97;5031797;28;40881;-84
2021/01/01 15:35:14;;;;;;;5.97;5.37;;;;;;;5.03;66.90;98187.00;5016117;28;39854;-83
2021/01/01 15:37:42;;;;;;;4.87;4.37;;;;;;;5.16;66.16;98230.06;5103010;22;41724;-85
2021/01/01 15:40:10;;;;;;;4.80;4.40;;;;;;;5.22;65.33;98247.28;5049174;28;43068;-84
2021/01/01 15:42:43;;;;;;;4.33;3.93;;;;;;;5.19;65.78;98250.91;5039159;28;41685;-84
2021/01/01 15:45:12;;;;;;;4.47;4.00;;;;;;;4.83;66.16;98179.28;4968398;28;39099;-83
2021/01/01 15:47:39;;;;;;;4.50;4.10;;;;;;;4.91;66.53;98192.88;5038194;28;40828;-84
2021/01/01 15:50:08;;;;;;;4.57;3.50;;;;;;;5.06;66.82;98218.34;5106704;22;43253;-84
2021/01/01 15:52:35;;;;;;;5.10;4.47;;;;;;;5.20;67.09;98241.25;5017326;28;43517;-83
2021/01/01 15:55:02;;;;;;;9.03;7.17;;;;;;;5.15;66.95;98238.03;5018145;28;38683;-84
2021/01/01 15:57:30;;;;;;;7.33;6.30;;;;;;;5.07;67.05;98225.25;5032929;28;42267;-82
2021/01/01 15:59:58;;;;;;;6.73;5.87;;;;;;;5.19;67.39;98244.81;5015158;28;43162;-82
2021/01/01 16:02:26;;;;;;;6.70;5.53;;;;;;;5.17;67.48;98247.53;5126064;22;44007;-83
2021/01/01 16:04:53;;;;;;;5.37;4.87;;;;;;;5.14;67.50;98241.56;5032527;28;40772;-83
2021/01/01 16:07:20;;;;;;;6.17;5.20;;;;;;;5.16;67.81;98240.56;5032367;28;40866;-83
2021/01/01 16:09:47;;;;;;;6.10;5.00;;;;;;;5.18;67.85;98248.38;5032621;28;41722;-84
2021/01/01 16:12:15;;;;;;;5.83;5.10;;;;;;;5.15;68.28;98249.38;5123284;22;41397;-84
2021/01/01 16:14:42;;;;;;;6.47;4.83;;;;;;;5.14;68.34;98245.03;5096336;27;39229;-82
